This is the latest recevied weather packets stored in our database for station/object KD8FRE. If no packets are shown the sender has not sent any weather packets the latest 10 day(s).
| Time | Temp. | Humidity | Pressure | Rain* | Wind** | Luminosity | Snow |
|---|---|---|---|---|---|---|---|
| 1777480589 | 10° C | 80% | 1012.2 hPa | 0 mm | - | 282 W/m² | - |
| 1777479982 | 10° C | 83% | 1012.4 hPa | 1.78 mm | - | 201 W/m² | - |
| 1777479679 | 10° C | 84% | 1012.4 hPa | 1.78 mm | - | 197 W/m² | - |
| 1777479073 | 9.44° C | 81% | 1012.3 hPa | 0 mm | - | 234 W/m² | - |
| 1777478466 | 9.44° C | 82% | 1012.3 hPa | 0 mm | - | 217 W/m² | - |
| 1777473913 | 8.33° C | 90% | 1012.8 hPa | 0 mm | - | 166 W/m² | - |
| 1777472699 | 8.33° C | 91% | 1012.9 hPa | 0 mm | - | 80 W/m² | - |
| 1777469967 | 8.33° C | 92% | 1013.2 hPa | 0 mm | - | 52 W/m² | - |
| 1777469663 | 8.33° C | 92% | 1013.2 hPa | 0 mm | - | 53 W/m² | - |
| 1777469359 | 8.33° C | 92% | 1013.3 hPa | 0 mm | - | 32 W/m² | - |
| 1777468750 | 8.33° C | 92% | 1013.3 hPa | 0 mm | - | 39 W/m² | - |
| 1777468446 | 7.78° C | 91% | 1013.3 hPa | 0 mm | - | 45 W/m² | - |
| 1777468142 | 7.78° C | 91% | 1013.4 hPa | 0 mm | - | 34 W/m² | - |
| 1777467534 | 7.78° C | 91% | 1013.1 hPa | 0 mm | - | 41 W/m² | - |
| 1777466926 | 7.78° C | 91% | 1013.1 hPa | 0 mm | - | 29 W/m² | - |
| 1777466320 | 7.78° C | 92% | 1013.4 hPa | 0 mm | - | 26 W/m² | - |
| 1777466017 | 7.78° C | 92% | 1013.4 hPa | 0 mm | - | 26 W/m² | - |
| 1777465713 | 7.78° C | 92% | 1013.7 hPa | 0 mm | - | 28 W/m² | - |
| 1777465409 | 7.78° C | 91% | 1013.6 hPa | 0 mm | - | 26 W/m² | - |
| 1777465107 | 7.78° C | 91% | 1013.7 hPa | 0 mm | - | 19 W/m² | - |
| 1777464804 | 8.33° C | 91% | 1013.7 hPa | 0 mm | - | 18 W/m² | - |
| 1777464499 | 7.78° C | 91% | 1013.6 hPa | 0 mm | - | 22 W/m² | - |
| 1777464195 | 7.78° C | 91% | 1013.7 hPa | 0 mm | - | 19 W/m² | - |
| 1777463896 | 7.78° C | 91% | 1013.5 hPa | 0 mm | - | 20 W/m² | - |
| 1777463292 | 7.78° C | 91% | 1013.5 hPa | 1.78 mm | - | 20 W/m² | - |
* Rain latest hour (hover to see other rain measurements)
** Current wind speed in m/s (hover to see current wind gust speed)